createdAt,value
2023-03-19T00:01:38.033Z,98403.52
2023-03-19T00:04:08.273Z,98400.52
2023-03-19T00:06:38.525Z,98401.77
2023-03-19T00:09:07.745Z,98398.92
2023-03-19T00:11:38.164Z,98395.33
2023-03-19T00:14:08.226Z,98398.88
2023-03-19T00:16:38.564Z,98394.46
2023-03-19T00:19:10.319Z,98392.96
2023-03-19T00:21:40.161Z,98394.96
2023-03-19T00:24:10.289Z,98392.95
2023-03-19T00:26:40.530Z,98393.74
2023-03-19T00:29:10.624Z,98391.55
2023-03-19T00:31:41.136Z,98392.67
2023-03-19T00:34:12.060Z,98391.42
2023-03-19T00:36:41.857Z,98391.71
2023-03-19T00:39:11.888Z,98392.79
2023-03-19T00:41:41.750Z,98387.86
2023-03-19T00:44:10.927Z,98391.55
2023-03-19T00:46:41.136Z,98387.12
2023-03-19T00:49:11.328Z,98385.17
2023-03-19T00:51:44.265Z,98381.30
2023-03-19T00:54:19.498Z,98383.66
2023-03-19T00:56:50.606Z,98379.67
2023-03-19T00:59:20.956Z,98382.34
2023-03-19T01:01:51.806Z,98383.09
2023-03-19T01:04:22.174Z,98378.69
2023-03-19T01:06:52.138Z,98377.99
2023-03-19T01:09:21.610Z,98374.75
2023-03-19T01:11:53.740Z,98377.52
2023-03-19T01:14:23.725Z,98375.45
2023-03-19T01:16:55.360Z,98375.75
2023-03-19T01:19:33.934Z,98371.73
2023-03-19T01:22:05.051Z,98376.45
2023-03-19T01:24:35.868Z,98380.52
2023-03-19T01:27:06.307Z,98380.33
2023-03-19T01:29:43.730Z,98379.81
2023-03-19T01:32:21.344Z,98381.27
2023-03-19T01:35:07.821Z,98381.18
2023-03-19T01:37:38.541Z,98382.15
2023-03-19T01:40:12.506Z,98382.09
2023-03-19T01:42:54.743Z,98379.86
2023-03-19T01:45:45.272Z,98378.42
2023-03-19T01:48:55.774Z,98379.25
2023-03-19T01:51:29.502Z,98382.55
2023-03-19T01:54:14.059Z,98381.00
2023-03-19T01:57:09.170Z,98383.67
2023-03-19T02:00:02.174Z,98382.88
2023-03-19T02:02:54.673Z,98384.02
2023-03-19T02:05:48.316Z,98384.23
2023-03-19T02:08:19.833Z,98385.33
2023-03-19T02:10:51.073Z,98383.98
2023-03-19T02:13:20.922Z,98380.91
2023-03-19T02:15:52.317Z,98380.61
2023-03-19T02:18:23.276Z,98381.36
2023-03-19T02:21:12.269Z,98380.56
2023-03-19T02:23:54.869Z,98382.41
2023-03-19T02:26:37.260Z,98380.29
2023-03-19T02:29:09.219Z,98381.34
2023-03-19T02:31:39.405Z,98387.02
2023-03-19T02:34:21.870Z,98383.04
2023-03-19T02:37:04.526Z,98381.02
2023-03-19T02:39:34.005Z,98379.35
2023-03-19T02:42:04.816Z,98380.90
2023-03-19T02:44:35.125Z,98377.75
2023-03-19T02:47:07.014Z,98378.11
2023-03-19T02:49:37.428Z,98379.19
2023-03-19T02:52:07.608Z,98383.84
2023-03-19T02:54:40.049Z,98385.96
2023-03-19T02:57:11.155Z,98390.30
2023-03-19T02:59:41.758Z,98397.42
2023-03-19T03:02:11.419Z,98399.02
2023-03-19T03:04:42.531Z,98404.20
2023-03-19T03:07:12.608Z,98397.39
2023-03-19T03:09:42.636Z,98399.67
2023-03-19T03:12:13.380Z,98401.73
2023-03-19T03:14:55.298Z,98399.92
2023-03-19T03:17:26.022Z,98402.10
2023-03-19T03:19:57.627Z,98408.27
2023-03-19T03:22:42.657Z,98409.07
2023-03-19T03:25:13.413Z,98408.15
2023-03-19T03:27:53.885Z,98407.02
2023-03-19T03:30:27.058Z,98408.38
2023-03-19T03:32:57.020Z,98413.52
2023-03-19T03:35:30.419Z,98413.09
2023-03-19T03:38:09.125Z,98416.27
2023-03-19T03:40:39.877Z,98418.95
2023-03-19T03:43:10.955Z,98417.87
2023-03-19T03:45:44.970Z,98420.34
2023-03-19T03:48:18.495Z,98415.48
2023-03-19T03:50:49.726Z,98415.73
2023-03-19T03:53:22.753Z,98415.92
2023-03-19T03:55:56.020Z,98415.91
2023-03-19T03:58:38.345Z,98415.05
2023-03-19T04:01:20.028Z,98418.81
2023-03-19T04:03:51.424Z,98420.27
2023-03-19T04:06:24.208Z,98421.56
2023-03-19T04:09:10.026Z,98419.41
2023-03-19T04:11:42.225Z,98422.88
2023-03-19T04:14:13.394Z,98417.77
2023-03-19T04:16:47.713Z,98419.20
2023-03-19T04:19:18.184Z,98420.19
2023-03-19T04:21:47.818Z,98414.81
2023-03-19T04:24:18.476Z,98419.66
2023-03-19T04:26:57.923Z,98419.33
2023-03-19T04:29:29.437Z,98419.72
2023-03-19T04:32:10.585Z,98417.73
2023-03-19T04:34:45.978Z,98413.69
2023-03-19T04:37:16.366Z,98409.03
2023-03-19T04:39:55.101Z,98407.59
2023-03-19T04:42:28.516Z,98410.90
2023-03-19T04:45:18.678Z,98407.92
2023-03-19T04:47:54.449Z,98408.83
2023-03-19T04:50:31.130Z,98407.21
2023-03-19T04:53:02.651Z,98404.66
2023-03-19T04:55:33.089Z,98407.15
2023-03-19T04:58:24.906Z,98410.71
2023-03-19T05:01:08.891Z,98415.82
2023-03-19T05:03:58.892Z,98419.50
2023-03-19T05:06:32.681Z,98422.34
2023-03-19T05:09:16.805Z,98420.75
2023-03-19T05:11:48.232Z,98418.61
2023-03-19T05:14:35.188Z,98419.25
2023-03-19T05:17:44.482Z,98418.73
2023-03-19T05:20:37.750Z,98423.70
2023-03-19T05:23:18.708Z,98422.21
2023-03-19T05:26:03.022Z,98422.52
2023-03-19T05:29:00.759Z,98425.02
2023-03-19T05:31:39.679Z,98427.67
2023-03-19T05:34:13.602Z,98423.06
2023-03-19T05:36:45.199Z,98423.11
2023-03-19T05:39:21.765Z,98419.59
2023-03-19T05:41:54.222Z,98415.45
2023-03-19T05:44:32.343Z,98415.80
2023-03-19T05:47:42.724Z,98412.53
2023-03-19T05:50:15.157Z,98411.54
2023-03-19T05:53:08.901Z,98409.91
2023-03-19T05:55:39.587Z,98416.48
2023-03-19T05:58:18.813Z,98419.73
2023-03-19T06:00:48.980Z,98411.69
2023-03-19T06:03:18.774Z,98410.19
2023-03-19T06:05:51.868Z,98411.29
2023-03-19T06:08:36.344Z,98412.63
2023-03-19T06:11:19.330Z,98413.14
2023-03-19T06:13:54.494Z,98415.36
2023-03-19T06:16:24.062Z,98415.64
2023-03-19T06:18:55.369Z,98416.08
2023-03-19T06:21:29.907Z,98416.48
2023-03-19T06:24:02.980Z,98414.45
2023-03-19T06:26:36.238Z,98416.09
2023-03-19T06:29:14.922Z,98414.63
2023-03-19T06:31:48.765Z,98411.14
2023-03-19T06:34:43.843Z,98410.73
2023-03-19T06:37:17.399Z,98410.30
2023-03-19T06:39:47.289Z,98404.48
2023-03-19T06:42:17.642Z,98403.07
2023-03-19T06:44:48.370Z,98400.63
2023-03-19T06:47:18.211Z,98399.04
2023-03-19T06:49:48.047Z,98394.96
2023-03-19T06:52:17.249Z,98397.23
2023-03-19T06:54:46.868Z,98397.73
2023-03-19T06:57:15.912Z,98394.64
2023-03-19T06:59:44.838Z,98396.08
2023-03-19T07:02:14.010Z,98393.52
2023-03-19T07:04:43.815Z,98396.16
2023-03-19T07:07:13.196Z,98399.45
2023-03-19T07:09:43.918Z,98399.32
2023-03-19T07:12:16.876Z,98401.58
2023-03-19T07:14:46.220Z,98392.33
2023-03-19T07:17:16.875Z,98394.45
2023-03-19T07:19:48.078Z,98394.41
2023-03-19T07:22:17.621Z,98388.98
2023-03-19T07:24:47.887Z,98389.84
2023-03-19T07:27:32.163Z,98385.85
2023-03-19T07:30:08.209Z,98382.07
2023-03-19T07:32:37.647Z,98382.95
2023-03-19T07:35:14.750Z,98388.23
2023-03-19T07:38:02.246Z,98386.39
2023-03-19T07:40:32.999Z,98383.96
2023-03-19T07:43:17.275Z,98381.98
2023-03-19T07:45:54.415Z,98384.51
2023-03-19T07:48:25.084Z,98380.65
2023-03-19T07:50:59.046Z,98375.98
2023-03-19T07:53:28.542Z,98379.41
2023-03-19T07:55:58.469Z,98380.19
2023-03-19T07:58:31.360Z,98378.41
2023-03-19T08:01:05.643Z,98372.89
2023-03-19T08:03:36.006Z,98368.24
2023-03-19T08:06:06.297Z,98365.39
2023-03-19T08:08:41.650Z,98368.57
2023-03-19T08:11:17.886Z,98371.85
2023-03-19T08:13:47.920Z,98374.88
2023-03-19T08:16:19.792Z,98370.72
2023-03-19T08:18:52.758Z,98363.68
2023-03-19T08:21:27.920Z,98362.85
2023-03-19T08:23:57.563Z,98364.41
2023-03-19T08:26:28.845Z,98365.69
2023-03-19T08:28:58.525Z,98363.65
2023-03-19T08:31:27.781Z,98359.31
2023-03-19T08:34:00.905Z,98358.44
2023-03-19T08:36:33.963Z,98355.41
2023-03-19T08:39:06.729Z,98350.45
2023-03-19T08:41:35.835Z,98348.60
2023-03-19T08:44:05.442Z,98352.75
2023-03-19T08:46:35.589Z,98351.20
2023-03-19T08:49:06.041Z,98344.59
2023-03-19T08:51:36.768Z,98347.15
2023-03-19T08:54:15.390Z,98345.08
2023-03-19T08:56:45.352Z,98339.52
2023-03-19T08:59:14.408Z,98336.80
2023-03-19T09:01:44.751Z,98330.52
2023-03-19T09:04:15.762Z,98330.05
2023-03-19T09:07:03.078Z,98325.77
2023-03-19T09:09:33.089Z,98327.14
2023-03-19T09:12:02.313Z,98324.30
2023-03-19T09:14:33.944Z,98324.08
2023-03-19T09:17:03.676Z,98314.65
2023-03-19T09:19:53.439Z,98315.59
2023-03-19T09:22:22.711Z,98315.91
2023-03-19T09:24:52.501Z,98315.86
2023-03-19T09:27:22.299Z,98314.55
2023-03-19T09:29:52.900Z,98313.23
2023-03-19T09:32:22.654Z,98307.23
2023-03-19T09:38:17.888Z,98303.58
2023-03-19T09:40:51.046Z,98303.41
2023-03-19T09:43:38.322Z,98300.48
2023-03-19T09:46:33.132Z,98296.88
2023-03-19T09:49:14.032Z,98292.46
2023-03-19T09:51:53.663Z,98287.61
2023-03-19T09:57:44.817Z,98284.49
2023-03-19T10:00:24.440Z,98282.00
2023-03-19T10:03:08.546Z,98283.09
2023-03-19T10:05:46.105Z,98283.04
2023-03-19T10:08:52.142Z,98278.73
2023-03-19T10:11:51.054Z,98281.59
2023-03-19T10:14:44.383Z,98280.23
2023-03-19T10:17:32.391Z,98279.08
2023-03-19T10:20:47.157Z,98273.48
2023-03-19T10:24:11.032Z,98268.42
2023-03-19T10:26:47.993Z,98263.66
2023-03-19T10:29:24.684Z,98264.39
2023-03-19T10:32:21.860Z,98259.34
2023-03-19T10:34:56.200Z,98249.52
2023-03-19T10:37:29.391Z,98248.94
2023-03-19T10:40:01.180Z,98242.50
2023-03-19T10:42:57.298Z,98237.79
2023-03-19T10:45:34.340Z,98237.65
2023-03-19T10:48:05.738Z,98228.83
2023-03-19T10:50:43.835Z,98224.30
2023-03-19T10:53:16.213Z,98219.64
2023-03-19T10:55:49.333Z,98214.93
2023-03-19T10:58:21.514Z,98208.92
2023-03-19T11:00:59.256Z,98200.20
2023-03-19T11:03:48.851Z,98195.77
2023-03-19T11:06:24.494Z,98192.85
2023-03-19T11:08:57.952Z,98190.54
2023-03-19T11:11:37.256Z,98189.24
2023-03-19T11:14:29.134Z,98180.83
2023-03-19T11:17:05.766Z,98175.55
2023-03-19T11:19:49.571Z,98176.17
2023-03-19T11:22:39.144Z,98172.63
2023-03-19T11:25:26.057Z,98172.06
2023-03-19T11:28:09.438Z,98174.73
2023-03-19T11:31:10.774Z,98168.65
2023-03-19T11:34:01.457Z,98168.41
2023-03-19T11:37:14.215Z,98163.60
2023-03-19T11:40:09.461Z,98156.92
2023-03-19T11:43:00.837Z,98155.49
2023-03-19T11:45:44.941Z,98161.79
2023-03-19T11:48:42.933Z,98156.29
2023-03-19T11:51:27.657Z,98156.26
2023-03-19T11:54:00.164Z,98156.13
2023-03-19T11:57:04.855Z,98155.15
2023-03-19T11:59:45.645Z,98149.81
2023-03-19T12:03:01.179Z,98145.08
2023-03-19T12:06:26.504Z,98146.69
2023-03-19T12:09:08.433Z,98134.80
2023-03-19T12:11:40.475Z,98128.89
2023-03-19T12:14:16.814Z,98129.11
2023-03-19T12:17:04.834Z,98123.80
2023-03-19T12:19:59.706Z,98120.77
2023-03-19T12:22:54.417Z,98116.80
2023-03-19T12:25:38.418Z,98111.69
2023-03-19T12:28:25.353Z,98106.58
2023-03-19T12:31:31.519Z,98096.70
2023-03-19T12:34:26.660Z,98090.11
2023-03-19T12:37:14.650Z,98088.49
2023-03-19T12:40:08.224Z,98087.27
2023-03-19T12:42:42.528Z,98088.62
2023-03-19T12:45:44.351Z,98080.45
2023-03-19T12:48:29.351Z,98079.59
2023-03-19T12:51:09.904Z,98077.88
2023-03-19T12:54:09.609Z,98083.73
2023-03-19T12:57:02.280Z,98077.73
2023-03-19T12:59:39.033Z,98075.28
2023-03-19T13:02:35.331Z,98068.33
2023-03-19T13:05:23.437Z,98073.03
2023-03-19T13:08:19.754Z,98070.54
2023-03-19T13:10:49.130Z,98063.31
2023-03-19T13:13:44.469Z,98055.86
2023-03-19T13:16:36.179Z,98052.31
2023-03-19T13:19:30.765Z,98052.17
2023-03-19T13:22:05.014Z,98045.11
2023-03-19T13:24:45.013Z,98041.89
2023-03-19T13:27:25.683Z,98041.27
2023-03-19T13:30:12.635Z,98037.30
2023-03-19T13:32:46.913Z,98032.61
2023-03-19T13:35:40.088Z,98026.78
2023-03-19T13:38:21.473Z,98023.81
2023-03-19T13:40:54.853Z,98017.73
2023-03-19T13:43:49.006Z,98012.48
2023-03-19T13:53:59.905Z,97998.25
2023-03-19T13:56:30.858Z,97997.15
2023-03-19T13:59:18.701Z,97993.39
2023-03-19T14:01:53.208Z,97995.95
2023-03-19T14:04:26.714Z,97989.72
2023-03-19T14:07:00.159Z,97991.62
2023-03-19T14:10:07.375Z,97989.84
2023-03-19T14:12:44.605Z,97986.10
2023-03-19T14:15:13.594Z,97980.23
2023-03-19T14:17:56.603Z,97980.45
2023-03-19T14:20:37.551Z,97977.46
2023-03-19T14:23:23.328Z,97974.35
2023-03-19T14:26:03.141Z,97975.08
2023-03-19T14:28:50.551Z,97966.98
2023-03-19T14:31:39.112Z,97963.91
2023-03-19T14:34:11.636Z,97962.45
2023-03-19T14:36:50.062Z,97962.05
2023-03-19T14:39:24.875Z,97957.26
2023-03-19T14:42:15.408Z,97954.09
2023-03-19T14:45:09.600Z,97949.47
2023-03-19T14:48:20.104Z,97951.02
2023-03-19T14:51:07.392Z,97953.89
2023-03-19T14:54:21.671Z,97951.29
2023-03-19T15:00:56.354Z,97949.64
2023-03-19T15:03:38.471Z,97947.38
2023-03-19T15:06:40.792Z,97946.83
2023-03-19T15:09:35.032Z,97948.11
2023-03-19T15:12:32.110Z,97948.15
2023-03-19T15:15:28.247Z,97948.71
2023-03-19T15:18:04.481Z,97951.19
2023-03-19T15:20:50.503Z,97954.89
2023-03-19T15:24:09.532Z,97955.62
2023-03-19T15:27:03.431Z,97955.75
2023-03-19T15:29:37.586Z,97955.61
2023-03-19T15:32:11.705Z,97959.07
2023-03-19T15:37:42.535Z,97966.91
2023-03-19T15:40:16.483Z,97971.41
2023-03-19T15:42:49.121Z,97973.18
2023-03-19T15:46:20.388Z,97969.21
2023-03-19T15:49:42.436Z,97972.55
2023-03-19T15:52:16.174Z,97970.11
2023-03-19T15:54:46.778Z,97972.91
2023-03-19T15:57:18.859Z,97974.77
2023-03-19T15:59:48.317Z,97976.98
2023-03-19T16:02:31.995Z,97976.92
2023-03-19T16:05:20.826Z,97982.85
2023-03-19T16:07:58.451Z,97986.41
2023-03-19T16:10:29.273Z,97989.88
2023-03-19T16:13:05.693Z,97991.42
2023-03-19T16:15:45.695Z,97988.63
2023-03-19T16:18:21.941Z,97987.41
2023-03-19T16:21:30.183Z,97990.20
2023-03-19T16:24:03.037Z,97995.57
2023-03-19T16:26:43.922Z,97996.95
2023-03-19T16:29:25.888Z,98003.86
2023-03-19T16:32:00.033Z,98005.95
2023-03-19T16:35:06.559Z,98011.44
2023-03-19T16:37:41.454Z,98018.26
2023-03-19T16:40:14.312Z,98015.93
2023-03-19T16:42:53.215Z,98027.23
2023-03-19T16:45:32.481Z,98030.39
2023-03-19T16:48:06.751Z,98029.63
2023-03-19T16:50:42.481Z,98030.57
2023-03-19T16:53:25.302Z,98036.42
2023-03-19T16:55:57.255Z,98031.33
2023-03-19T16:58:35.306Z,98032.55
2023-03-19T17:01:21.592Z,98035.89
2023-03-19T17:03:54.530Z,98035.09
2023-03-19T17:06:35.274Z,98033.81
2023-03-19T17:09:05.169Z,98040.09
2023-03-19T17:11:41.249Z,98047.17
2023-03-19T17:14:23.039Z,98053.98
2023-03-19T17:16:54.791Z,98054.60
2023-03-19T17:19:37.235Z,98053.42
2023-03-19T17:22:07.337Z,98053.48
2023-03-19T17:24:37.180Z,98053.98
2023-03-19T17:27:07.068Z,98053.27
2023-03-19T17:29:36.364Z,98050.89
2023-03-19T17:32:14.653Z,98046.89
2023-03-19T17:34:44.149Z,98046.60
2023-03-19T17:37:17.206Z,98046.10
2023-03-19T17:39:46.899Z,98050.33
2023-03-19T17:42:26.654Z,98051.37
2023-03-19T17:45:01.384Z,98049.95
2023-03-19T17:48:17.434Z,98048.77
2023-03-19T17:50:47.287Z,98051.45
2023-03-19T17:53:19.188Z,98052.55
2023-03-19T17:55:48.226Z,98051.60
2023-03-19T17:58:21.684Z,98050.01
2023-03-19T18:00:52.769Z,98048.52
2023-03-19T18:03:25.174Z,98048.38
2023-03-19T18:05:54.920Z,98048.32
2023-03-19T18:08:24.513Z,98051.15
2023-03-19T18:10:53.670Z,98049.68
2023-03-19T18:13:28.565Z,98052.47
2023-03-19T18:15:59.235Z,98057.79
2023-03-19T18:18:29.684Z,98058.66
2023-03-19T18:21:00.657Z,98060.44
2023-03-19T18:23:34.460Z,98054.52
2023-03-19T18:26:04.036Z,98060.91
2023-03-19T18:28:33.355Z,98061.20
2023-03-19T18:31:03.161Z,98059.94
2023-03-19T18:33:35.280Z,98058.95
2023-03-19T18:36:04.687Z,98057.79
2023-03-19T18:38:34.726Z,98055.62
2023-03-19T18:41:07.607Z,98053.48
2023-03-19T18:43:40.156Z,98050.85
2023-03-19T18:46:32.478Z,98051.61
2023-03-19T18:49:32.466Z,98048.19
2023-03-19T18:52:03.876Z,98048.14
2023-03-19T18:55:14.609Z,98050.97
2023-03-19T18:57:57.625Z,98056.70
2023-03-19T19:00:49.585Z,98066.60
2023-03-19T19:03:29.769Z,98070.11
2023-03-19T19:06:03.319Z,98073.98
2023-03-19T19:08:32.484Z,98072.60
2023-03-19T19:11:10.404Z,98069.08
2023-03-19T19:13:55.223Z,98067.23
2023-03-19T19:16:37.846Z,98066.02
2023-03-19T19:19:24.251Z,98078.95
2023-03-19T19:21:54.102Z,98082.64
2023-03-19T19:24:24.839Z,98081.85
2023-03-19T19:27:04.776Z,98083.66
2023-03-19T19:29:34.781Z,98085.32
2023-03-19T19:36:00.013Z,98074.20
2023-03-19T19:38:30.755Z,98067.89
2023-03-19T19:41:02.173Z,98069.67
2023-03-19T19:43:39.754Z,98071.79
2023-03-19T19:46:13.491Z,98070.52
2023-03-19T19:48:45.543Z,98075.80
2023-03-19T19:51:25.557Z,98073.17
2023-03-19T19:53:56.417Z,98069.34
2023-03-19T19:56:29.924Z,98065.58
2023-03-19T19:59:06.908Z,98063.69
2023-03-19T20:01:54.718Z,98066.67
2023-03-19T20:04:30.466Z,98064.96
2023-03-19T20:07:00.293Z,98065.44
2023-03-19T20:09:33.348Z,98067.17
2023-03-19T20:12:36.494Z,98074.63
2023-03-19T20:15:21.839Z,98077.00
2023-03-19T20:17:55.830Z,98066.92
2023-03-19T20:20:28.855Z,98064.02
2023-03-19T20:23:04.509Z,98068.42
2023-03-19T20:25:39.865Z,98068.92
2023-03-19T20:28:24.787Z,98074.11
2023-03-19T20:30:57.733Z,98073.91
2023-03-19T20:33:27.766Z,98075.92
2023-03-19T20:35:58.162Z,98078.69
2023-03-19T20:38:29.789Z,98078.48
2023-03-19T20:41:02.184Z,98079.25
2023-03-19T20:43:38.092Z,98080.98
2023-03-19T20:46:08.231Z,98084.66
2023-03-19T20:48:42.554Z,98083.30
2023-03-19T20:51:20.370Z,98083.04
2023-03-19T20:54:00.953Z,98085.80
2023-03-19T20:56:31.816Z,98089.63
2023-03-19T20:59:06.211Z,98086.38
2023-03-19T21:01:35.920Z,98085.58
2023-03-19T21:04:11.026Z,98084.71
2023-03-19T21:06:52.397Z,98081.67
2023-03-19T21:09:26.328Z,98084.52
2023-03-19T21:11:56.076Z,98081.45
2023-03-19T21:14:27.454Z,98080.58
2023-03-19T21:16:57.371Z,98080.52
2023-03-19T21:19:26.698Z,98079.77
2023-03-19T21:21:57.778Z,98080.30
2023-03-19T21:24:28.270Z,98078.25
2023-03-19T21:27:26.161Z,98075.61
2023-03-19T21:29:56.124Z,98073.20
2023-03-19T21:32:28.298Z,98073.67
2023-03-19T21:35:00.183Z,98075.83
2023-03-19T21:37:30.862Z,98073.23
2023-03-19T21:40:01.236Z,98075.86
2023-03-19T21:42:34.563Z,98074.95
2023-03-19T21:45:04.035Z,98075.95
2023-03-19T21:47:33.873Z,98081.33
2023-03-19T21:50:03.041Z,98079.11
2023-03-19T21:52:42.798Z,98080.28
2023-03-19T21:55:20.010Z,98078.38
2023-03-19T21:57:49.777Z,98083.48
2023-03-19T22:00:20.628Z,98080.93
2023-03-19T22:02:51.421Z,98082.07
2023-03-19T22:05:25.577Z,98078.84
2023-03-19T22:07:56.119Z,98080.23
2023-03-19T22:10:29.413Z,98078.32
2023-03-19T22:13:00.432Z,98082.39
2023-03-19T22:15:37.797Z,98082.12
2023-03-19T22:18:16.077Z,98078.61
2023-03-19T22:20:47.701Z,98074.94
2023-03-19T22:23:19.333Z,98070.02
2023-03-19T22:25:51.608Z,98071.52
2023-03-19T22:28:35.323Z,98072.16
2023-03-19T22:31:05.599Z,98072.81
2023-03-19T22:33:35.857Z,98074.79
2023-03-19T22:36:06.425Z,98074.02
2023-03-19T22:38:35.635Z,98073.96
2023-03-19T22:41:13.966Z,98076.16
2023-03-19T22:43:45.921Z,98076.15
2023-03-19T22:46:18.750Z,98073.23
2023-03-19T22:48:57.650Z,98074.77
2023-03-19T22:51:31.161Z,98074.52
2023-03-19T22:54:03.251Z,98075.60
2023-03-19T22:56:32.548Z,98072.95
2023-03-19T22:59:02.740Z,98068.88
2023-03-19T23:01:38.436Z,98067.50
2023-03-19T23:04:29.450Z,98068.71
2023-03-19T23:07:01.120Z,98067.42
2023-03-19T23:09:36.760Z,98067.52
2023-03-19T23:14:37.283Z,98064.82
2023-03-19T23:17:19.915Z,98062.39
2023-03-19T23:19:50.860Z,98064.67
2023-03-19T23:22:21.316Z,98064.19
2023-03-19T23:24:51.138Z,98069.90
2023-03-19T23:27:26.616Z,98069.13
2023-03-19T23:29:57.022Z,98067.36
2023-03-19T23:32:27.214Z,98066.37
2023-03-19T23:35:01.440Z,98063.52
2023-03-19T23:37:32.972Z,98060.49
2023-03-19T23:40:02.336Z,98056.71
2023-03-19T23:42:32.585Z,98058.65
2023-03-19T23:45:04.240Z,98062.21
2023-03-19T23:47:34.447Z,98060.42
2023-03-19T23:50:04.491Z,98062.02
2023-03-19T23:52:34.162Z,98062.66
2023-03-19T23:55:07.386Z,98061.61
2023-03-19T23:57:39.744Z,98061.48
